Time;durP1;ratioP1;P1;durP2;ratioP2;P2;SDS_P1;SDS_P2;PMS_P1;PMS_P2;Temp;Humidity;BMP_temperature;BMP_pressure;BME280_temperature;BME280_humidity;BME280_pressure;Samples;Min_cycle;Max_cycle;Signal;HPM_P1;HPM_P2
2021/05/28 00:01:19;;;;;;;2.83;1.38;;;10.10;79.70;;;;;;5007600;28;20073;-92
2021/05/28 00:03:46;;;;;;;2.10;1.20;;;10.00;79.70;;;;;;5013976;28;20026;-93
2021/05/28 00:06:12;;;;;;;1.98;1.20;;;10.00;79.80;;;;;;5013925;28;20109;-93
2021/05/28 00:08:38;;;;;;;3.00;1.50;;;10.00;79.80;;;;;;5005838;28;20122;-92
2021/05/28 00:11:03;;;;;;;4.07;1.70;;;10.00;79.90;;;;;;4998507;28;20076;-93
2021/05/28 00:13:29;;;;;;;2.75;1.17;;;10.00;79.90;;;;;;5013366;28;20461;-93
2021/05/28 00:15:55;;;;;;;1.80;1.52;;;9.90;80.00;;;;;;5013394;28;20026;-94
2021/05/28 00:18:20;;;;;;;3.55;1.60;;;9.80;80.00;;;;;;5013149;28;20040;-93
2021/05/28 00:20:46;;;;;;;1.95;1.30;;;9.80;80.20;;;;;;5013822;28;20029;-93
2021/05/28 00:23:12;;;;;;;2.13;1.27;;;9.80;80.20;;;;;;5013342;28;20050;-92
2021/05/28 00:25:37;;;;;;;3.42;1.38;;;9.80;80.20;;;;;;4996114;28;20500;-93
2021/05/28 00:28:03;;;;;;;2.58;1.63;;;9.80;80.20;;;;;;4995661;28;20037;-92
2021/05/28 00:30:29;;;;;;;2.92;1.75;;;9.70;80.20;;;;;;5013281;28;20014;-92
2021/05/28 00:32:55;;;;;;;2.45;1.70;;;9.70;80.30;;;;;;4995876;28;20048;-93
2021/05/28 00:35:20;;;;;;;2.70;1.70;;;9.70;80.30;;;;;;5012947;28;20037;-93
2021/05/28 00:37:46;;;;;;;2.38;1.67;;;9.70;80.40;;;;;;5013238;28;20034;-94
2021/05/28 00:40:14;;;;;;;3.05;1.80;;;9.60;80.50;;;;;;4995369;28;20032;-93
2021/05/28 00:42:39;;;;;;;2.75;1.88;;;9.60;80.60;;;;;;5013252;28;20116;-93
2021/05/28 00:45:07;;;;;;;5.53;1.90;;;9.60;80.60;;;;;;5013135;28;20086;-92
2021/05/28 00:47:32;;;;;;;4.25;1.90;;;9.60;80.70;;;;;;4994911;28;20548;-91
2021/05/28 00:49:58;;;;;;;3.50;2.35;;;9.50;80.80;;;;;;5013344;28;20022;-92
2021/05/28 00:52:24;;;;;;;3.08;1.90;;;9.50;80.90;;;;;;5013087;28;20026;-91
2021/05/28 00:54:50;;;;;;;3.58;1.80;;;9.40;81.00;;;;;;5012851;28;20116;-92
2021/05/28 00:57:16;;;;;;;3.92;1.90;;;9.40;81.00;;;;;;5012518;28;20018;-92
2021/05/28 00:59:43;;;;;;;2.78;1.50;;;9.40;81.10;;;;;;5012626;28;20029;-92
2021/05/28 01:02:08;;;;;;;3.28;1.75;;;9.40;81.10;;;;;;5012856;28;20029;-94
2021/05/28 01:04:34;;;;;;;3.53;1.70;;;9.30;81.10;;;;;;5012310;28;20018;-92
2021/05/28 01:06:59;;;;;;;2.72;1.38;;;9.30;81.20;;;;;;4995384;28;20372;-93
2021/05/28 01:09:25;;;;;;;3.67;1.52;;;9.30;81.20;;;;;;4995172;28;20073;-93
2021/05/28 01:11:50;;;;;;;1.88;1.63;;;9.30;81.20;;;;;;5012419;28;20022;-91
2021/05/28 01:14:29;;;;;;;3.65;1.80;;;9.30;81.20;;;;;;4994270;28;20026;-91
2021/05/28 01:16:55;;;;;;;2.58;1.50;;;9.30;81.20;;;;;;5006983;28;20033;-93
2021/05/28 01:19:20;;;;;;;2.28;1.60;;;9.30;81.20;;;;;;4992821;28;20030;-92
2021/05/28 01:21:46;;;;;;;2.25;1.65;;;9.20;81.10;;;;;;5002965;28;20471;-92
2021/05/28 01:24:12;;;;;;;2.88;1.90;;;9.20;81.20;;;;;;5012455;28;20099;-91
2021/05/28 01:26:38;;;;;;;3.13;1.85;;;9.20;81.30;;;;;;4995216;28;20030;-93
2021/05/28 01:29:04;;;;;;;2.20;1.88;;;9.20;81.30;;;;;;4994786;28;20057;-93
2021/05/28 01:31:30;;;;;;;3.30;2.28;;;9.20;81.30;;;;;;5001534;28;20429;-93
2021/05/28 01:33:56;;;;;;;5.65;2.80;;;9.20;81.40;;;;;;5013594;28;20026;-92
2021/05/28 01:36:21;;;;;;;2.95;2.03;;;9.30;81.60;;;;;;5011727;28;20036;-91
2021/05/28 01:38:47;;;;;;;3.45;2.10;;;9.30;81.60;;;;;;5025168;28;20040;-94
2021/05/28 01:41:12;;;;;;;3.00;2.17;;;9.30;81.60;;;;;;5028647;28;20055;-92
2021/05/28 01:43:38;;;;;;;9.65;2.65;;;9.40;81.50;;;;;;5011215;28;20147;-93
2021/05/28 01:46:04;;;;;;;5.43;2.20;;;9.40;81.50;;;;;;4994794;28;20026;-92
2021/05/28 01:48:29;;;;;;;6.47;2.88;;;9.40;81.50;;;;;;5012316;28;20097;-93
2021/05/28 01:50:55;;;;;;;4.75;2.08;;;9.40;81.60;;;;;;5012357;28;20555;-92
2021/05/28 01:53:23;;;;;;;7.30;2.65;;;9.40;81.60;;;;;;5008511;28;20030;-91
2021/05/28 01:55:50;;;;;;;6.95;2.60;;;9.30;81.80;;;;;;4992586;28;20030;-93
2021/05/28 01:58:18;;;;;;;6.72;2.50;;;9.30;81.80;;;;;;4992382;28;20042;-93
2021/05/28 02:00:45;;;;;;;6.43;2.50;;;9.40;82.00;;;;;;4992930;28;20030;-93
2021/05/28 02:03:11;;;;;;;6.78;2.10;;;9.40;82.10;;;;;;5002791;28;20026;-92
2021/05/28 02:05:36;;;;;;;16.55;2.55;;;9.40;82.00;;;;;;5012465;28;20064;-92
2021/05/28 02:08:03;;;;;;;3.65;2.03;;;9.40;82.00;;;;;;5013536;28;20030;-94
2021/05/28 02:10:30;;;;;;;7.13;2.88;;;9.40;82.10;;;;;;5015612;28;20018;-95
2021/05/28 02:12:57;;;;;;;5.80;2.50;;;9.40;82.10;;;;;;4998340;28;20040;-96
2021/05/28 02:15:23;;;;;;;9.90;2.53;;;9.40;82.30;;;;;;5016137;28;20018;-94
2021/05/28 02:17:50;;;;;;;11.93;2.58;;;9.50;82.00;;;;;;4998516;28;20120;-93
2021/05/28 02:20:16;;;;;;;14.60;3.05;;;9.50;81.90;;;;;;5015384;28;20176;-94
2021/05/28 02:22:42;;;;;;;4.07;2.45;;;9.50;82.00;;;;;;5007523;28;20022;-92
2021/05/28 02:25:09;;;;;;;3.90;2.63;;;9.50;82.10;;;;;;4998279;28;20022;-93
2021/05/28 02:27:35;;;;;;;8.38;3.50;;;9.50;82.10;;;;;;5015074;28;20026;-93
2021/05/28 02:30:01;;;;;;;5.85;2.47;;;9.50;82.20;;;;;;4998130;28;20026;-93
2021/05/28 02:32:36;;;;;;;5.75;3.05;;;9.50;82.20;;;;;;4998001;28;20396;-93
2021/05/28 02:35:03;;;;;;;9.20;3.30;;;9.40;82.20;;;;;;5015290;28;20033;-94
2021/05/28 02:37:29;;;;;;;5.75;3.05;;;9.40;82.30;;;;;;4997726;28;20123;-94
2021/05/28 02:39:55;;;;;;;14.75;3.63;;;9.40;82.40;;;;;;4998004;28;20050;-94
2021/05/28 02:42:20;;;;;;;13.00;3.22;;;9.40;82.40;;;;;;4997619;28;20029;-94
2021/05/28 02:44:46;;;;;;;5.70;2.88;;;9.40;82.40;;;;;;5015036;28;20026;-94
2021/05/28 02:47:12;;;;;;;11.82;2.80;;;9.40;82.50;;;;;;4997969;28;20465;-94
2021/05/28 02:49:38;;;;;;;5.00;2.83;;;9.40;82.50;;;;;;5014846;28;20080;-95
2021/05/28 02:52:04;;;;;;;17.65;3.08;;;9.40;82.60;;;;;;5014337;28;20475;-94
2021/05/28 02:54:30;;;;;;;14.38;3.15;;;9.40;82.70;;;;;;4995112;28;20050;-95
2021/05/28 02:56:55;;;;;;;17.70;3.25;;;9.30;82.80;;;;;;4978330;28;20389;-94
2021/05/28 02:59:21;;;;;;;6.22;3.45;;;9.30;82.80;;;;;;4978246;28;20031;-93
2021/05/28 03:01:47;;;;;;;7.68;2.90;;;9.30;83.10;;;;;;5001192;28;20034;-93
2021/05/28 03:04:14;;;;;;;10.68;3.00;;;9.20;83.10;;;;;;4995417;28;20056;-94
2021/05/28 03:06:39;;;;;;;9.73;3.53;;;9.20;83.20;;;;;;4995518;28;20042;-94
2021/05/28 03:09:05;;;;;;;7.47;3.20;;;9.20;83.40;;;;;;4978183;28;20023;-94
2021/05/28 03:11:31;;;;;;;11.55;3.30;;;9.30;83.30;;;;;;4995526;28;20030;-95
2021/05/28 03:13:57;;;;;;;12.23;3.38;;;9.30;83.20;;;;;;5008009;28;20468;-93
2021/05/28 03:16:22;;;;;;;4.65;2.80;;;9.40;83.10;;;;;;5014858;28;20036;-94
2021/05/28 03:18:54;;;;;;;4.05;2.70;;;9.40;83.10;;;;;;4997055;28;20499;-94
2021/05/28 03:21:23;;;;;;;9.15;2.97;;;9.50;83.00;;;;;;4996976;28;20499;-95
2021/05/28 03:23:53;;;;;;;3.33;2.38;;;9.50;83.40;;;;;;4997072;28;20022;-95
2021/05/28 03:26:20;;;;;;;7.55;3.22;;;9.60;82.80;;;;;;4997065;28;20034;-94
2021/05/28 03:28:46;;;;;;;8.15;3.20;;;9.60;82.70;;;;;;5014365;28;20022;-94
2021/05/28 03:31:11;;;;;;;5.45;3.08;;;9.60;82.70;;;;;;5012514;28;20534;-96
2021/05/28 03:33:38;;;;;;;6.28;2.85;;;9.60;82.70;;;;;;5014506;28;20101;-95
2021/05/28 03:36:05;;;;;;;4.82;2.00;;;9.60;82.70;;;;;;4996145;28;20081;-94
2021/05/28 03:38:31;;;;;;;8.88;2.97;;;9.60;82.60;;;;;;5013756;28;20026;-96
2021/05/28 03:40:57;;;;;;;8.85;2.90;;;9.60;82.80;;;;;;5014556;28;20484;-95
2021/05/28 03:43:23;;;;;;;6.88;2.55;;;9.60;82.70;;;;;;5014177;28;20044;-92
2021/05/28 03:45:48;;;;;;;10.07;3.10;;;9.70;82.70;;;;;;5008312;28;20547;-92
2021/05/28 03:48:14;;;;;;;10.15;2.35;;;9.70;82.60;;;;;;5015356;28;20018;-95
2021/05/28 03:50:39;;;;;;;5.28;3.00;;;9.70;82.60;;;;;;5020725;28;20036;-93
2021/05/28 03:53:05;;;;;;;12.00;3.17;;;9.70;82.50;;;;;;5020466;28;20025;-95
2021/05/28 03:55:31;;;;;;;7.18;2.42;;;9.70;82.50;;;;;;5025511;28;20029;-95
2021/05/28 03:57:56;;;;;;;5.28;3.10;;;9.70;82.50;;;;;;4999856;28;20024;-92
2021/05/28 04:00:22;;;;;;;6.97;2.53;;;9.70;82.40;;;;;;5026489;28;20037;-92
2021/05/28 04:02:48;;;;;;;10.75;2.90;;;9.70;82.30;;;;;;5005490;28;20010;-93
2021/05/28 04:05:15;;;;;;;4.18;2.85;;;9.70;82.30;;;;;;5023364;28;20028;-93
2021/05/28 04:07:41;;;;;;;6.40;2.95;;;9.70;82.30;;;;;;5001872;28;20022;-93
2021/05/28 04:10:07;;;;;;;5.80;2.97;;;9.70;82.30;;;;;;5023923;28;20032;-93
2021/05/28 04:12:33;;;;;;;12.30;3.90;;;9.70;82.30;;;;;;4998209;28;20021;-94
2021/05/28 04:14:59;;;;;;;6.78;2.75;;;9.60;82.30;;;;;;5021471;28;20040;-94
2021/05/28 04:17:24;;;;;;;8.07;3.13;;;9.60;82.50;;;;;;5035606;28;20025;-91
2021/05/28 04:19:50;;;;;;;3.63;2.97;;;9.60;82.60;;;;;;5018905;28;20033;-92
2021/05/28 04:22:15;;;;;;;5.57;2.72;;;9.50;82.60;;;;;;5031274;28;20037;-95
2021/05/28 04:24:41;;;;;;;6.88;2.55;;;9.60;82.70;;;;;;5027549;28;20029;-95
2021/05/28 04:27:07;;;;;;;4.43;2.38;;;9.60;82.60;;;;;;5022203;28;20155;-96
2021/05/28 04:29:32;;;;;;;8.48;2.40;;;9.70;82.60;;;;;;5003349;28;20624;-95
2021/05/28 04:31:58;;;;;;;5.57;2.72;;;9.70;82.60;;;;;;5024267;28;20152;-94
2021/05/28 04:34:24;;;;;;;4.85;2.88;;;9.70;82.50;;;;;;5024347;28;20081;-92
2021/05/28 04:36:49;;;;;;;8.02;2.70;;;9.80;82.60;;;;;;5024422;28;20022;-94
2021/05/28 04:39:15;;;;;;;6.60;2.30;;;9.80;82.50;;;;;;5006212;28;20091;-94
2021/05/28 04:41:41;;;;;;;6.78;2.92;;;9.80;82.40;;;;;;5027925;28;20091;-95
2021/05/28 04:44:07;;;;;;;5.97;2.90;;;9.80;82.40;;;;;;5017169;28;20018;-93
2021/05/28 04:46:33;;;;;;;5.63;2.22;;;9.80;82.40;;;;;;5021782;28;20022;-92
2021/05/28 04:48:59;;;;;;;3.03;2.50;;;9.80;82.50;;;;;;5003658;28;20087;-94
2021/05/28 04:51:24;;;;;;;6.15;2.30;;;9.70;82.50;;;;;;5017950;28;20022;-93
2021/05/28 04:53:50;;;;;;;15.20;2.63;;;9.70;82.70;;;;;;5021832;28;20120;-92
2021/05/28 04:56:17;;;;;;;6.15;2.08;;;9.70;82.60;;;;;;5016628;28;20022;-96
2021/05/28 04:58:43;;;;;;;12.20;2.30;;;9.60;82.60;;;;;;5004477;28;20089;-96
2021/05/28 05:01:08;;;;;;;10.32;2.50;;;9.70;82.70;;;;;;5000888;28;20030;-95
2021/05/28 05:03:34;;;;;;;6.53;2.20;;;9.70;82.60;;;;;;5026750;28;20021;-96
2021/05/28 05:05:59;;;;;;;6.32;2.28;;;9.70;82.50;;;;;;5025780;28;20095;-94
2021/05/28 05:08:26;;;;;;;8.35;2.80;;;9.80;82.50;;;;;;5016423;28;20029;-94
2021/05/28 05:10:51;;;;;;;5.88;2.17;;;9.80;82.40;;;;;;4997699;28;20167;-93
2021/05/28 05:13:17;;;;;;;7.00;2.15;;;9.90;82.40;;;;;;4995482;28;20025;-94
2021/05/28 05:15:42;;;;;;;3.60;2.45;;;9.80;82.30;;;;;;5014154;28;20037;-94
2021/05/28 05:18:08;;;;;;;4.50;2.20;;;9.90;82.50;;;;;;4991731;28;20075;-94
2021/05/28 05:20:35;;;;;;;5.20;2.80;;;9.90;82.60;;;;;;4989215;28;20396;-96
2021/05/28 05:23:01;;;;;;;7.20;2.53;;;10.00;82.50;;;;;;5002451;28;20033;-96
2021/05/28 05:25:27;;;;;;;6.60;2.17;;;10.00;82.40;;;;;;5007837;28;20026;-94
2021/05/28 05:27:53;;;;;;;4.32;2.92;;;10.00;82.20;;;;;;5002943;28;20162;-95
2021/05/28 05:30:19;;;;;;;4.68;2.70;;;10.10;82.20;;;;;;5009264;28;20030;-95
2021/05/28 05:32:45;;;;;;;3.75;2.42;;;10.10;82.20;;;;;;5008666;28;20034;-94
2021/05/28 05:35:11;;;;;;;6.47;2.40;;;10.10;82.10;;;;;;4996943;28;20080;-96
2021/05/28 05:37:37;;;;;;;4.05;2.00;;;10.20;82.10;;;;;;5005559;28;20034;-92
2021/05/28 05:40:05;;;;;;;2.70;2.17;;;10.20;82.00;;;;;;4997001;28;20087;-95
2021/05/28 05:42:30;;;;;;;3.25;2.42;;;10.30;81.90;;;;;;5024556;28;20026;-90
2021/05/28 05:44:56;;;;;;;3.88;2.72;;;10.40;81.90;;;;;;5015571;28;20607;-91
2021/05/28 05:47:22;;;;;;;4.35;2.83;;;10.40;81.70;;;;;;4995374;28;20026;-90
2021/05/28 05:49:47;;;;;;;4.03;2.38;;;10.50;81.60;;;;;;4998230;28;20041;-90
2021/05/28 05:52:13;;;;;;;3.45;2.80;;;10.60;81.40;;;;;;4997189;28;20018;-91
2021/05/28 05:54:38;;;;;;;4.55;2.50;;;10.70;81.40;;;;;;5014681;28;20041;-92
2021/05/28 05:57:22;;;;;;;2.58;2.15;;;10.70;81.20;;;;;;5013004;28;20029;-92
2021/05/28 05:59:47;;;;;;;2.95;2.45;;;10.80;81.10;;;;;;5021182;28;20053;-91
2021/05/28 06:02:13;;;;;;;3.58;2.55;;;10.80;81.10;;;;;;5018451;28;20147;-91
2021/05/28 06:04:38;;;;;;;3.85;2.75;;;10.90;81.00;;;;;;5013670;28;20030;-93
2021/05/28 06:07:04;;;;;;;2.15;1.95;;;10.90;81.00;;;;;;4992093;28;20028;-93
2021/05/28 06:09:30;;;;;;;3.65;2.72;;;11.00;80.90;;;;;;5009283;28;20014;-93
2021/05/28 06:11:57;;;;;;;3.17;2.75;;;11.00;81.00;;;;;;4995965;28;20033;-94
2021/05/28 06:14:23;;;;;;;2.67;2.20;;;11.10;81.00;;;;;;5000207;28;20021;-92
2021/05/28 06:16:48;;;;;;;6.38;3.05;;;11.10;80.80;;;;;;5005239;28;20060;-93
2021/05/28 06:19:14;;;;;;;4.63;3.00;;;11.20;80.70;;;;;;5001744;28;20388;-93
2021/05/28 06:21:40;;;;;;;3.63;2.85;;;11.30;80.60;;;;;;5018155;28;20291;-91
2021/05/28 06:24:07;;;;;;;4.35;3.00;;;11.20;80.50;;;;;;5017326;28;20017;-91
2021/05/28 06:26:32;;;;;;;3.33;2.72;;;11.10;80.60;;;;;;4996812;28;20018;-91
2021/05/28 06:28:58;;;;;;;4.20;3.30;;;11.10;80.80;;;;;;5013657;28;20024;-91
2021/05/28 06:31:24;;;;;;;4.38;3.30;;;11.10;80.90;;;;;;5015929;28;20092;-93
2021/05/28 06:33:50;;;;;;;4.22;3.30;;;11.10;81.10;;;;;;4989176;28;20400;-92
2021/05/28 06:36:23;;;;;;;4.60;3.20;;;11.20;81.20;;;;;;5003412;28;20018;-93
2021/05/28 06:38:48;;;;;;;3.22;2.55;;;11.30;81.10;;;;;;5009683;28;20053;-91
2021/05/28 06:41:14;;;;;;;5.13;3.30;;;11.50;80.90;;;;;;5007685;28;20080;-89
2021/05/28 06:43:39;;;;;;;3.78;3.30;;;11.60;80.60;;;;;;5014787;28;20022;-92
2021/05/28 06:46:05;;;;;;;4.22;3.20;;;11.60;80.40;;;;;;5014528;28;20048;-91
2021/05/28 06:48:30;;;;;;;4.53;3.60;;;11.70;80.20;;;;;;5008540;28;20127;-90
2021/05/28 06:50:56;;;;;;;5.50;3.22;;;11.80;80.00;;;;;;5002163;28;20461;-89
2021/05/28 06:53:22;;;;;;;4.28;2.88;;;11.90;79.90;;;;;;5002371;28;20029;-91
2021/05/28 06:55:47;;;;;;;5.05;3.10;;;12.00;79.60;;;;;;4994029;28;20034;-90
2021/05/28 06:58:13;;;;;;;4.22;3.47;;;12.10;79.40;;;;;;4995920;28;20030;-90
2021/05/28 07:00:39;;;;;;;3.10;2.75;;;12.30;79.10;;;;;;4989465;28;20026;-91
2021/05/28 07:03:05;;;;;;;3.13;2.72;;;12.40;78.90;;;;;;5003526;28;20156;-91
2021/05/28 07:05:30;;;;;;;3.70;3.00;;;12.60;78.60;;;;;;5023342;28;20067;-89
2021/05/28 07:07:57;;;;;;;4.22;3.55;;;12.70;78.10;;;;;;4984118;28;20452;-90
2021/05/28 07:10:23;;;;;;;3.30;2.60;;;12.90;77.80;;;;;;4991835;28;20025;-91
2021/05/28 07:12:49;;;;;;;3.70;3.30;;;13.20;77.50;;;;;;5003623;28;20097;-91
2021/05/28 07:15:16;;;;;;;4.43;3.45;;;13.50;77.20;;;;;;4996384;28;20370;-91
2021/05/28 07:17:41;;;;;;;4.03;3.30;;;13.70;76.60;;;;;;5024556;28;20040;-91
2021/05/28 07:20:08;;;;;;;5.40;3.60;;;13.90;76.20;;;;;;5024677;28;20029;-90
2021/05/28 07:22:34;;;;;;;2.60;2.38;;;14.10;75.70;;;;;;5018114;28;20033;-91
2021/05/28 07:25:04;;;;;;;4.68;4.13;;;14.30;75.40;;;;;;5011557;28;20022;-92
2021/05/28 07:27:30;;;;;;;4.60;4.10;;;14.20;74.30;;;;;;5000132;28;20112;-92
2021/05/28 07:29:57;;;;;;;5.32;4.10;;;14.20;74.30;;;;;;5006116;28;20068;-91
2021/05/28 07:32:24;;;;;;;3.42;3.00;;;14.10;74.30;;;;;;5015762;28;20018;-90
2021/05/28 07:34:50;;;;;;;5.03;4.32;;;14.10;74.40;;;;;;5012826;28;20030;-91
2021/05/28 07:37:16;;;;;;;4.18;3.63;;;14.00;74.40;;;;;;5032505;28;20034;-90
2021/05/28 07:39:41;;;;;;;4.43;3.53;;;14.10;74.40;;;;;;5025332;28;20505;-91
2021/05/28 07:42:08;;;;;;;3.97;3.20;;;14.10;73.60;;;;;;5006507;28;20038;-92
2021/05/28 07:44:34;;;;;;;3.80;2.90;;;14.30;73.90;;;;;;5011160;28;20389;-90
2021/05/28 07:46:59;;;;;;;3.08;2.78;;;14.50;73.70;;;;;;5004981;28;20097;-90
2021/05/28 07:49:26;;;;;;;3.80;2.90;;;14.80;73.40;;;;;;5012044;28;20087;-90
2021/05/28 07:51:52;;;;;;;3.80;3.20;;;15.00;72.90;;;;;;4994715;28;20022;-91
2021/05/28 07:54:18;;;;;;;3.90;3.47;;;15.30;72.70;;;;;;4985171;28;20120;-89
2021/05/28 07:56:44;;;;;;;3.22;2.70;;;15.40;71.90;;;;;;5002314;28;20054;-90
2021/05/28 07:59:10;;;;;;;4.28;3.33;;;15.60;71.90;;;;;;4995518;28;20029;-91
2021/05/28 08:01:36;;;;;;;3.83;3.17;;;15.70;70.80;;;;;;5007437;28;20044;-92
2021/05/28 08:04:03;;;;;;;2.65;2.45;;;15.70;70.70;;;;;;4999116;28;20026;-90
2021/05/28 08:06:29;;;;;;;4.20;3.65;;;15.90;70.60;;;;;;4995425;28;20018;-91
2021/05/28 08:08:55;;;;;;;4.20;3.47;;;15.70;68.90;;;;;;5027266;28;20100;-88
2021/05/28 08:11:20;;;;;;;3.15;2.83;;;15.70;69.30;;;;;;4999775;28;20057;-88
2021/05/28 08:13:47;;;;;;;2.40;2.20;;;15.80;69.40;;;;;;5024880;28;20018;-88
2021/05/28 08:16:14;;;;;;;4.60;3.58;;;16.00;69.70;;;;;;5013380;28;20125;-89
2021/05/28 08:18:41;;;;;;;5.00;3.60;;;16.10;69.30;;;;;;5000154;28;20021;-91
2021/05/28 08:21:07;;;;;;;4.95;4.22;;;16.10;67.90;;;;;;5011884;28;20033;-91
2021/05/28 08:23:33;;;;;;;5.03;4.50;;;16.10;67.70;;;;;;4996864;28;20018;-93
2021/05/28 08:26:01;;;;;;;4.55;3.45;;;15.80;66.50;;;;;;4976504;28;20046;-96
2021/05/28 08:28:27;;;;;;;3.30;2.80;;;15.80;67.40;;;;;;4981254;28;20049;-94
2021/05/28 08:31:04;;;;;;;5.00;3.88;;;16.00;67.90;;;;;;4995213;28;20111;-94
2021/05/28 08:33:30;;;;;;;4.32;3.60;;;16.10;67.90;;;;;;5013496;28;20042;-94
2021/05/28 08:35:55;;;;;;;6.55;4.47;;;16.20;67.20;;;;;;4997295;28;20079;-93
2021/05/28 08:38:21;;;;;;;5.45;4.22;;;16.30;67.00;;;;;;5015720;28;20036;-94
2021/05/28 08:40:47;;;;;;;6.63;5.13;;;16.40;66.90;;;;;;5001026;28;20512;-91
2021/05/28 08:43:13;;;;;;;7.85;5.22;;;16.50;66.70;;;;;;5014848;28;20025;-93
2021/05/28 08:45:41;;;;;;;4.93;4.03;;;16.60;66.10;;;;;;4996245;28;20109;-93
2021/05/28 08:48:09;;;;;;;8.10;6.13;;;16.70;66.30;;;;;;4995636;28;20022;-93
2021/05/28 08:50:39;;;;;;;5.68;4.20;;;16.70;64.80;;;;;;5013557;28;20022;-94
2021/05/28 08:53:08;;;;;;;5.75;4.53;;;16.70;65.40;;;;;;5002139;28;20045;-93
2021/05/28 08:55:38;;;;;;;4.90;3.70;;;16.70;65.10;;;;;;4996147;28;20105;-93
2021/05/28 08:58:08;;;;;;;5.57;3.53;;;16.80;65.10;;;;;;5006654;28;20075;-96
2021/05/28 09:00:35;;;;;;;5.03;4.32;;;16.90;65.10;;;;;;4997711;28;20117;-95
2021/05/28 09:03:19;;;;;;;4.40;3.60;;;16.90;64.00;;;;;;5008217;28;20769;-95
2021/05/28 09:05:46;;;;;;;4.15;3.50;;;17.00;64.40;;;;;;5032895;28;20060;-96
2021/05/28 09:08:13;;;;;;;5.13;3.35;;;17.20;64.10;;;;;;5001960;28;20026;-94
2021/05/28 09:10:41;;;;;;;3.85;3.40;;;17.30;63.90;;;;;;5018483;28;20030;-96
2021/05/28 09:13:10;;;;;;;4.38;3.40;;;17.40;63.40;;;;;;5010064;28;20018;-96
2021/05/28 09:15:40;;;;;;;3.75;2.88;;;17.40;62.40;;;;;;5034162;28;20017;-96
2021/05/28 09:18:06;;;;;;;3.40;2.90;;;17.50;62.40;;;;;;4998393;28;20030;-96
2021/05/28 09:20:32;;;;;;;3.55;2.80;;;17.50;61.60;;;;;;5000950;28;20037;-96
2021/05/28 09:23:15;;;;;;;5.65;4.40;;;17.50;62.30;;;;;;5004857;28;20034;-96
2021/05/28 09:26:09;;;;;;;7.60;5.80;;;17.50;61.10;;;;;;5016755;28;20030;-96
2021/05/28 09:28:43;;;;;;;6.57;5.00;;;17.40;60.40;;;;;;4994419;28;20038;-96
2021/05/28 09:31:17;;;;;;;11.32;9.07;;;17.40;61.00;;;;;;5024201;28;20013;-95
2021/05/28 09:33:49;;;;;;;7.82;5.45;;;17.50;60.70;;;;;;5016551;28;20030;-90
2021/05/28 09:36:15;;;;;;;7.90;5.75;;;17.50;60.60;;;;;;5026165;28;20018;-90
2021/05/28 09:38:54;;;;;;;5.00;3.53;;;17.70;60.80;;;;;;5016938;28;20366;-91
2021/05/28 09:41:53;;;;;;;6.05;4.07;;;17.90;60.60;;;;;;5009311;28;20495;-92
2021/05/28 09:44:22;;;;;;;4.82;3.97;;;17.90;60.50;;;;;;5009754;28;20030;-91
2021/05/28 09:46:57;;;;;;;2.97;2.55;;;18.00;59.60;;;;;;5015406;28;20029;-92
2021/05/28 09:49:26;;;;;;;2.88;2.53;;;18.10;59.80;;;;;;5003121;28;20123;-90
2021/05/28 09:52:07;;;;;;;4.68;3.60;;;18.00;58.50;;;;;;4999912;28;20034;-94
2021/05/28 09:54:33;;;;;;;4.88;3.30;;;17.80;58.00;;;;;;5011299;28;20168;-92
2021/05/28 09:56:59;;;;;;;4.60;2.88;;;17.90;58.20;;;;;;5015997;28;20079;-93
2021/05/28 09:59:25;;;;;;;5.13;3.80;;;17.90;58.00;;;;;;5026962;28;20048;-93
2021/05/28 10:02:01;;;;;;;3.40;2.70;;;17.90;56.70;;;;;;5000836;28;20132;-92
2021/05/28 10:04:27;;;;;;;3.17;2.38;;;18.00;57.20;;;;;;4999966;28;20025;-91
2021/05/28 10:06:56;;;;;;;2.78;2.35;;;18.20;57.90;;;;;;5018527;28;20101;-95
2021/05/28 10:09:40;;;;;;;2.40;2.13;;;18.30;57.40;;;;;;5019501;28;20029;-90
2021/05/28 10:12:06;;;;;;;2.78;2.08;;;18.50;57.30;;;;;;5004706;28;20068;-93
2021/05/28 10:14:31;;;;;;;2.58;2.20;;;18.70;57.30;;;;;;5022096;28;20392;-94
2021/05/28 10:16:57;;;;;;;2.67;2.17;;;18.90;56.80;;;;;;5019923;28;20526;-94
2021/05/28 10:19:23;;;;;;;4.45;3.03;;;19.00;56.00;;;;;;4996541;28;20096;-96
2021/05/28 10:21:49;;;;;;;3.90;2.72;;;18.90;54.80;;;;;;5005234;28;20033;-96
2021/05/28 10:24:30;;;;;;;3.08;2.75;;;18.80;53.70;;;;;;5023922;28;20101;-93
2021/05/28 10:26:57;;;;;;;3.40;2.80;;;18.80;55.00;;;;;;5000912;28;20102;-96
2021/05/28 10:29:24;;;;;;;3.40;2.70;;;18.70;53.40;;;;;;5020458;28;20046;-96
2021/05/28 10:31:52;;;;;;;6.20;3.53;;;18.60;53.60;;;;;;5016323;28;20695;-96
2021/05/28 10:34:18;;;;;;;3.65;2.80;;;18.80;53.70;;;;;;5000645;28;20014;-96
2021/05/28 10:36:47;;;;;;;3.75;2.65;;;18.70;53.70;;;;;;5003109;28;20137;-96
2021/05/28 10:39:16;;;;;;;3.05;2.30;;;18.50;52.10;;;;;;4999545;28;20042;-96
2021/05/28 10:41:52;;;;;;;3.03;2.40;;;18.60;52.90;;;;;;5004256;28;20042;-94
2021/05/28 10:44:23;;;;;;;3.70;2.40;;;18.80;52.60;;;;;;5017985;28;20202;-95
2021/05/28 10:47:16;;;;;;;2.47;2.28;;;18.80;52.20;;;;;;5024227;28;20472;-96
2021/05/28 10:49:47;;;;;;;2.03;1.83;;;19.00;52.90;;;;;;5024708;28;20041;-96
2021/05/28 10:52:14;;;;;;;1.88;1.65;;;19.20;52.90;;;;;;5026404;28;20026;-96
2021/05/28 10:54:43;;;;;;;2.40;1.50;;;19.40;52.30;;;;;;5012166;28;20484;-96
2021/05/28 10:57:19;;;;;;;1.38;1.15;;;19.60;52.30;;;;;;5035856;28;20104;-96
2021/05/28 10:59:47;;;;;;;2.00;1.80;;;19.80;52.90;;;;;;5001345;28;20029;-95
2021/05/28 11:02:13;;;;;;;2.67;2.17;;;19.70;49.80;;;;;;4996047;28;20030;-96
2021/05/28 11:04:38;;;;;;;1.90;1.70;;;19.50;48.50;;;;;;5001464;28;20020;-92
2021/05/28 11:07:04;;;;;;;1.67;1.40;;;19.40;49.60;;;;;;5017490;28;20056;-89
2021/05/28 11:10:18;;;;;;;1.90;1.63;;;19.50;50.10;;;;;;5017052;28;20056;-91
2021/05/28 11:12:44;;;;;;;1.42;1.30;;;19.70;50.10;;;;;;4957818;28;20120;-93
2021/05/28 11:15:14;;;;;;;1.67;1.55;;;19.70;49.60;;;;;;5012934;28;20125;-93
2021/05/28 11:18:03;;;;;;;1.50;1.40;;;19.50;49.10;;;;;;4994447;28;20033;-92
2021/05/28 11:20:39;;;;;;;1.40;1.30;;;19.70;49.80;;;;;;5015587;28;20029;-92
2021/05/28 11:23:23;;;;;;;1.60;1.50;;;20.00;50.00;;;;;;4990803;28;20393;-93
2021/05/28 11:25:53;;;;;;;1.98;1.52;;;20.00;48.80;;;;;;5018201;28;20052;-95
2021/05/28 11:28:22;;;;;;;3.40;1.90;;;19.90;48.60;;;;;;5015019;28;20026;-96
2021/05/28 11:30:50;;;;;;;2.33;1.40;;;19.90;46.70;;;;;;5013987;28;20051;-96
2021/05/28 11:33:37;;;;;;;2.67;1.95;;;19.80;47.50;;;;;;5017956;28;20026;-93
2021/05/28 11:36:29;;;;;;;1.60;1.50;;;19.60;46.10;;;;;;4996581;28;20045;-96
2021/05/28 11:38:58;;;;;;;;;;;19.50;47.40;;;;;;4991485;28;20033;-95
2021/05/28 11:41:42;;;;;;;1.10;1.00;;;19.80;47.90;;;;;;5001946;28;19917;-93
2021/05/28 11:44:14;;;;;;;2.10;1.48;;;19.90;47.70;;;;;;5015862;28;20018;-96
2021/05/28 11:46:42;;;;;;;1.70;1.60;;;19.80;46.30;;;;;;5023922;28;20783;-95
2021/05/28 11:49:08;;;;;;;1.60;1.30;;;19.70;46.20;;;;;;5026583;28;20033;-93
2021/05/28 11:51:33;;;;;;;1.20;1.10;;;19.60;46.40;;;;;;5018405;28;20017;-95
2021/05/28 11:53:59;;;;;;;1.30;1.20;;;19.90;47.20;;;;;;5030052;28;20063;-96
2021/05/28 11:56:28;;;;;;;2.00;1.50;;;20.30;47.30;;;;;;5005951;28;20018;-96
2021/05/28 11:58:57;;;;;;;2.65;1.55;;;20.70;46.60;;;;;;5039563;28;20056;-96
2021/05/28 12:01:23;;;;;;;1.50;1.40;;;20.80;45.80;;;;;;5012587;28;20050;-93
2021/05/28 12:03:49;;;;;;;1.38;0.95;;;20.90;45.70;;;;;;5015671;28;20083;-91
2021/05/28 12:06:16;;;;;;;1.73;1.30;;;21.00;45.80;;;;;;5023010;28;20021;-92
2021/05/28 12:08:42;;;;;;;1.02;0.98;;;21.10;45.10;;;;;;5033198;28;20030;-95
2021/05/28 12:11:09;;;;;;;1.50;1.00;;;21.10;44.80;;;;;;5026279;28;20032;-94
2021/05/28 12:13:37;;;;;;;2.35;1.27;;;21.30;45.10;;;;;;5014205;28;20018;-94
2021/05/28 12:16:14;;;;;;;2.95;1.10;;;21.20;43.70;;;;;;4996101;28;20043;-95
2021/05/28 12:18:45;;;;;;;1.40;1.20;;;21.20;44.20;;;;;;4998049;28;20094;-96
2021/05/28 12:21:17;;;;;;;1.65;1.42;;;21.30;44.40;;;;;;5017596;28;20379;-94
2021/05/28 12:23:50;;;;;;;1.27;1.17;;;21.10;42.20;;;;;;5013334;28;20045;-93
2021/05/28 12:26:17;;;;;;;1.10;1.00;;;20.80;42.50;;;;;;5006026;28;20064;-94
2021/05/28 12:28:49;;;;;;;2.20;1.20;;;20.80;43.70;;;;;;5031071;28;20044;-93
2021/05/28 12:31:17;;;;;;;1.63;1.45;;;20.80;43.40;;;;;;5007970;28;20430;-93
2021/05/28 12:33:46;;;;;;;1.23;1.00;;;21.00;43.60;;;;;;5032768;28;20038;-93
2021/05/28 12:36:14;;;;;;;1.42;1.00;;;21.10;43.50;;;;;;4998803;28;20029;-96
2021/05/28 12:38:50;;;;;;;1.10;1.00;;;21.10;42.50;;;;;;5004510;28;20094;-96
2021/05/28 12:41:19;;;;;;;2.30;1.10;;;21.20;42.50;;;;;;5006627;28;20030;-95
2021/05/28 12:43:46;;;;;;;1.35;1.05;;;21.30;42.70;;;;;;5006228;28;20029;-93
2021/05/28 12:46:33;;;;;;;1.35;1.00;;;21.50;42.30;;;;;;5004343;28;20094;-95
2021/05/28 12:49:14;;;;;;;1.05;0.90;;;21.30;41.90;;;;;;5015076;28;20064;-96
2021/05/28 12:51:44;;;;;;;0.90;0.90;;;21.50;42.80;;;;;;5028273;28;20079;-95
2021/05/28 12:54:14;;;;;;;1.15;0.80;;;21.70;42.50;;;;;;5007475;28;20030;-96